Time;durP1;ratioP1;P1;durP2;ratioP2;P2;SDS_P1;SDS_P2;PMS_P1;PMS_P2;Temp;Humidity;BMP_temperature;BMP_pressure;BME280_temperature;BME280_humidity;BME280_pressure;Samples;Min_cycle;Max_cycle;Signal;HPM_P1;HPM_P2
2023/01/06 00:00:32;;;;;;;20.20;6.65;;;;;;;9.40;100.00;101838.91;5019149;28;20024;-74
2023/01/06 00:02:57;;;;;;;17.50;6.70;;;;;;;9.41;100.00;101835.47;5012314;28;20029;-74
2023/01/06 00:05:22;;;;;;;20.75;7.22;;;;;;;9.44;100.00;101829.41;5009445;28;20416;-74
2023/01/06 00:07:49;;;;;;;18.77;7.40;;;;;;;9.44;100.00;101827.69;5012358;28;20049;-74
2023/01/06 00:10:14;;;;;;;19.85;7.20;;;;;;;9.45;100.00;101820.78;5004111;28;20036;-74
2023/01/06 00:12:43;;;;;;;20.38;7.25;;;;;;;9.47;100.00;101812.16;5019471;28;20026;-74
2023/01/06 00:15:09;;;;;;;18.98;6.40;;;;;;;9.49;100.00;101800.06;5011958;28;20080;-74
2023/01/06 00:17:34;;;;;;;19.58;6.60;;;;;;;9.55;100.00;101801.78;5012889;28;20034;-74
2023/01/06 00:19:59;;;;;;;21.40;8.10;;;;;;;9.57;100.00;101802.63;5016017;28;20032;-75
2023/01/06 00:22:25;;;;;;;20.33;6.70;;;;;;;9.61;100.00;101795.72;5012193;28;20408;-74
2023/01/06 00:24:50;;;;;;;21.58;7.32;;;;;;;9.63;100.00;101804.31;5003589;28;20080;-74
2023/01/06 00:27:15;;;;;;;20.40;7.28;;;;;;;9.63;100.00;101802.59;5017713;28;20420;-74
2023/01/06 00:29:41;;;;;;;18.05;6.90;;;;;;;9.64;100.00;101803.44;5015572;28;20068;-74
2023/01/06 00:32:06;;;;;;;22.30;7.28;;;;;;;9.64;100.00;101804.31;5012073;28;20018;-74
2023/01/06 00:34:32;;;;;;;21.08;7.20;;;;;;;9.64;100.00;101801.72;5017739;28;20045;-74
2023/01/06 00:36:57;;;;;;;15.25;6.82;;;;;;;9.64;100.00;101801.72;5011283;28;20040;-74
2023/01/06 00:39:23;;;;;;;17.42;6.38;;;;;;;9.64;100.00;101798.28;5010728;28;20089;-74
2023/01/06 00:42:04;;;;;;;18.08;6.40;;;;;;;9.66;100.00;101796.53;5016391;28;20512;-74
2023/01/06 00:44:37;;;;;;;17.52;6.30;;;;;;;9.66;100.00;101791.38;5011039;28;20476;-74
2023/01/06 00:47:04;;;;;;;14.23;6.03;;;;;;;9.67;100.00;101795.69;5011478;28;20420;-74
2023/01/06 00:49:30;;;;;;;15.95;5.75;;;;;;;9.67;100.00;101788.78;5009154;28;20029;-74
2023/01/06 00:51:55;;;;;;;12.45;5.05;;;;;;;9.67;100.00;101791.38;5011231;28;20026;-74
2023/01/06 00:54:21;;;;;;;12.82;5.22;;;;;;;9.67;100.00;101798.28;5012109;28;20049;-74
2023/01/06 00:56:49;;;;;;;13.13;4.97;;;;;;;9.67;100.00;101793.09;5016072;28;20068;-74
2023/01/06 00:59:17;;;;;;;12.05;5.15;;;;;;;9.68;100.00;101797.41;5012325;28;20045;-74
2023/01/06 01:01:43;;;;;;;14.82;5.57;;;;;;;9.67;100.00;101798.28;5011361;28;20393;-74
2023/01/06 01:04:10;;;;;;;13.65;4.40;;;;;;;9.68;100.00;101793.09;5010682;28;20029;-74
2023/01/06 01:06:36;;;;;;;15.00;4.70;;;;;;;9.68;100.00;101787.06;5012156;28;20030;-74
2023/01/06 01:09:03;;;;;;;12.18;4.80;;;;;;;9.70;100.00;101787.88;5014810;28;20025;-74
2023/01/06 01:14:13;;;;;;;15.65;5.20;;;;;;;9.69;100.00;101801.72;5014444;28;20040;-74
2023/01/06 01:16:39;;;;;;;14.88;5.00;;;;;;;9.70;100.00;101785.28;5013924;28;20026;-74
2023/01/06 01:19:05;;;;;;;11.07;4.57;;;;;;;9.69;100.00;101792.19;5007316;28;20646;-74
2023/01/06 01:21:31;;;;;;;13.68;5.03;;;;;;;9.69;100.00;101784.44;5014998;28;20018;-74
2023/01/06 01:23:56;;;;;;;11.38;4.78;;;;;;;9.69;100.00;101787.00;5014753;28;20052;-74
2023/01/06 01:26:21;;;;;;;16.08;5.35;;;;;;;9.68;100.00;101781.88;5015042;28;20030;-74
2023/01/06 01:28:47;;;;;;;12.10;5.13;;;;;;;9.70;100.00;101786.16;5014080;28;20523;-74
2023/01/06 01:31:14;;;;;;;11.35;4.63;;;;;;;9.69;100.00;101779.25;5008423;28;20080;-74
2023/01/06 01:33:40;;;;;;;9.23;4.50;;;;;;;9.70;100.00;101780.97;5004045;28;20384;-74
2023/01/06 01:36:11;;;;;;;9.13;4.07;;;;;;;9.71;100.00;101779.25;5023984;28;20476;-74
2023/01/06 01:38:36;;;;;;;11.98;4.53;;;;;;;9.71;100.00;101768.91;5013793;28;20029;-74
2023/01/06 01:41:02;;;;;;;10.23;4.10;;;;;;;9.72;100.00;101768.91;5024415;28;20033;-74
2023/01/06 01:43:43;;;;;;;9.35;4.25;;;;;;;9.72;100.00;101761.13;5013416;28;20117;-74
2023/01/06 01:46:10;;;;;;;9.20;3.80;;;;;;;9.71;100.00;101748.19;5018908;28;20396;-74
2023/01/06 01:48:37;;;;;;;11.70;3.85;;;;;;;9.72;100.00;101752.50;5018554;28;20550;-74
2023/01/06 01:51:06;;;;;;;10.90;3.55;;;;;;;9.71;100.00;101758.53;5016292;28;20121;-74
2023/01/06 01:53:36;;;;;;;7.72;3.70;;;;;;;9.70;100.00;101746.47;5013174;28;20032;-74
2023/01/06 01:56:07;;;;;;;9.32;3.22;;;;;;;9.68;100.00;101751.66;5013136;28;20088;-74
2023/01/06 01:58:37;;;;;;;9.18;3.20;;;;;;;9.70;100.00;101751.63;5014046;28;20024;-75
2023/01/06 02:01:04;;;;;;;10.88;3.33;;;;;;;9.70;100.00;101754.22;5012976;28;20512;-74
2023/01/06 02:03:30;;;;;;;9.18;3.15;;;;;;;9.69;100.00;101747.34;5013845;28;20040;-74
2023/01/06 02:06:00;;;;;;;6.72;2.88;;;;;;;9.70;100.00;101751.63;5013823;28;20014;-74
2023/01/06 02:08:25;;;;;;;10.02;3.38;;;;;;;9.69;100.00;101748.19;5021986;28;20036;-75
2023/01/06 02:10:50;;;;;;;7.23;2.90;;;;;;;9.69;100.00;101740.41;5014146;28;20029;-74
2023/01/06 02:13:16;;;;;;;8.55;2.40;;;;;;;9.69;100.00;101742.19;5014163;28;20045;-74
2023/01/06 02:15:42;;;;;;;7.40;2.42;;;;;;;9.69;100.00;101737.00;5012729;28;20455;-74
2023/01/06 02:18:19;;;;;;;8.15;2.60;;;;;;;9.70;100.00;101746.47;5013557;28;20030;-74
2023/01/06 02:20:55;;;;;;;8.80;2.72;;;;;;;9.70;100.00;101738.69;5010927;28;20574;-74
2023/01/06 02:23:27;;;;;;;8.35;2.53;;;;;;;9.69;100.00;101737.00;5025649;28;20224;-74
2023/01/06 02:26:43;;;;;;;8.32;2.70;;;;;;;9.71;100.00;101727.47;5013499;28;20030;-74
2023/01/06 02:29:36;;;;;;;6.68;2.60;;;;;;;9.72;100.00;101724.03;5006491;28;20037;-75
2023/01/06 02:32:10;;;;;;;6.25;2.40;;;;;;;9.70;100.00;101730.94;5011193;28;20042;-74
2023/01/06 02:34:40;;;;;;;;;;;;;;;9.74;100.00;101725.75;5008116;28;20025;-75
2023/01/06 02:37:13;;;;;;;4.53;2.30;;;;;;;9.69;100.00;101722.31;5013215;28;20390;-74
2023/01/06 02:39:56;;;;;;;6.10;2.35;;;;;;;9.70;100.00;101715.41;5012581;28;20053;-74
2023/01/06 02:42:29;;;;;;;6.47;2.50;;;;;;;9.71;100.00;101711.94;5019008;28;20088;-74
2023/01/06 02:45:09;;;;;;;6.18;2.22;;;;;;;9.69;100.00;101704.19;5016488;28;20120;-75
2023/01/06 02:47:52;;;;;;;8.45;2.53;;;;;;;9.70;100.00;101711.06;5011573;28;20058;-74
2023/01/06 02:50:36;;;;;;;6.43;2.17;;;;;;;9.70;100.00;101689.50;5010188;28;20057;-75
2023/01/06 02:53:25;;;;;;;6.67;2.20;;;;;;;9.70;100.00;101692.97;5025927;28;20077;-74
2023/01/06 02:55:53;;;;;;;6.78;2.15;;;;;;;9.69;100.00;101698.16;5001449;28;20033;-75
2023/01/06 02:58:47;;;;;;;7.32;2.20;;;;;;;9.68;100.00;101686.94;5004085;28;20407;-74
2023/01/06 03:01:24;;;;;;;6.63;2.20;;;;;;;9.68;100.00;101686.94;5013294;28;20560;-75
2023/01/06 03:03:52;;;;;;;7.78;2.08;;;;;;;9.68;100.00;101688.69;5000902;28;20451;-75
2023/01/06 03:06:23;;;;;;;5.10;2.30;;;;;;;9.68;100.00;101686.09;5008915;28;20049;-74
2023/01/06 03:08:52;;;;;;;7.68;2.20;;;;;;;9.68;100.00;101675.72;5007319;28;20052;-74
2023/01/06 03:11:17;;;;;;;6.43;2.20;;;;;;;9.67;100.00;101674.88;5020107;28;20033;-74
2023/01/06 03:13:51;;;;;;;9.20;2.22;;;;;;;9.67;100.00;101677.47;5012728;28;20033;-74
2023/01/06 03:16:17;;;;;;;5.38;2.20;;;;;;;9.68;100.00;101686.09;5025187;28;20104;-73
2023/01/06 03:18:45;;;;;;;7.38;2.00;;;;;;;9.68;100.00;101679.19;5009849;28;20109;-73
2023/01/06 03:21:16;;;;;;;4.55;1.90;;;;;;;9.70;100.00;101666.22;5009383;28;20076;-74
2023/01/06 03:23:42;;;;;;;7.63;2.08;;;;;;;9.69;100.00;101665.34;5008691;28;20057;-74
2023/01/06 03:26:08;;;;;;;6.10;1.83;;;;;;;9.68;100.00;101658.47;5006050;28;20396;-74
2023/01/06 03:28:34;;;;;;;5.47;1.83;;;;;;;9.67;100.00;101661.94;5007913;28;20172;-74
2023/01/06 03:31:08;;;;;;;8.63;2.10;;;;;;;9.67;100.00;101664.53;5022181;28;20065;-74
2023/01/06 03:33:38;;;;;;;6.93;1.98;;;;;;;9.67;100.00;101661.06;5010168;28;20439;-74
2023/01/06 03:36:29;;;;;;;6.35;2.00;;;;;;;9.67;100.00;101664.53;5010823;28;20045;-74
2023/01/06 03:39:10;;;;;;;5.22;1.88;;;;;;;9.69;100.00;101656.75;5013412;28;20037;-74
2023/01/06 03:44:50;;;;;;;8.88;2.10;;;;;;;9.69;100.00;101643.81;5008042;28;20135;-75
2023/01/06 03:47:36;;;;;;;5.32;1.80;;;;;;;9.70;100.00;101640.31;5010289;28;20030;-74
2023/01/06 03:50:31;;;;;;;6.85;2.10;;;;;;;9.69;100.00;101644.63;5007679;28;20427;-75
2023/01/06 03:53:34;;;;;;;3.88;1.92;;;;;;;9.71;100.00;101652.41;5010258;28;20088;-75
2023/01/06 03:56:05;;;;;;;4.60;1.92;;;;;;;9.71;100.00;101655.84;4997189;28;20100;-75
2023/01/06 03:58:32;;;;;;;5.95;2.30;;;;;;;9.73;100.00;101658.44;5021899;28;20373;-74
2023/01/06 04:00:58;;;;;;;4.95;1.98;;;;;;;9.72;100.00;101651.53;5017595;28;20022;-74
2023/01/06 04:03:25;;;;;;;7.93;2.20;;;;;;;9.71;100.00;101652.41;5031577;28;20531;-75
2023/01/06 04:05:51;;;;;;;7.00;2.00;;;;;;;9.74;100.00;101652.38;5015915;28;20092;-75
2023/01/06 04:08:16;;;;;;;7.28;1.92;;;;;;;9.74;100.00;101648.06;5006336;28;20480;-74
2023/01/06 04:10:42;;;;;;;4.47;2.10;;;;;;;9.74;100.00;101645.50;5013228;28;20029;-74
2023/01/06 04:13:07;;;;;;;4.63;2.10;;;;;;;9.73;100.00;101629.97;5006774;28;20305;-75
2023/01/06 04:15:32;;;;;;;5.75;2.00;;;;;;;9.74;100.00;101627.38;5011173;28;20419;-74
2023/01/06 04:17:58;;;;;;;5.82;2.22;;;;;;;9.74;100.00;101629.94;5018805;28;20593;-74
2023/01/06 04:20:26;;;;;;;5.70;2.03;;;;;;;9.75;100.00;101631.69;5008923;28;20049;-75
2023/01/06 04:22:53;;;;;;;6.40;2.20;;;;;;;9.74;100.00;101613.56;5012201;28;20519;-74
2023/01/06 04:25:18;;;;;;;3.53;1.80;;;;;;;9.76;100.00;101614.38;5015637;28;20080;-75
2023/01/06 04:27:44;;;;;;;6.90;2.08;;;;;;;9.77;100.00;101608.34;5013608;28;20025;-75
2023/01/06 04:30:10;;;;;;;6.55;2.20;;;;;;;9.75;100.00;101608.38;5011621;28;20030;-75
2023/01/06 04:32:35;;;;;;;9.00;2.20;;;;;;;9.77;100.00;101600.56;5010953;28;20033;-75
2023/01/06 04:35:01;;;;;;;6.40;1.80;;;;;;;9.75;100.00;101590.25;5022330;28;20034;-75
2023/01/06 04:37:26;;;;;;;4.90;1.95;;;;;;;9.78;100.00;101590.22;5017542;28;20065;-75
2023/01/06 04:39:51;;;;;;;3.85;1.98;;;;;;;9.80;100.00;101592.78;5010823;28;20054;-74
2023/01/06 04:42:17;;;;;;;4.95;2.50;;;;;;;9.78;100.00;101582.44;5015035;28;20511;-75
2023/01/06 04:44:42;;;;;;;3.72;2.00;;;;;;;9.80;100.00;101582.44;5015053;28;20296;-74
2023/01/06 04:47:08;;;;;;;3.22;1.58;;;;;;;9.79;100.00;101580.72;5029486;28;20478;-75
2023/01/06 04:49:33;;;;;;;3.20;1.67;;;;;;;9.79;100.00;101580.72;5014341;28;20062;-75
2023/01/06 04:51:59;;;;;;;4.97;1.60;;;;;;;9.78;100.00;101576.41;5015226;28;20090;-75
2023/01/06 04:54:24;;;;;;;3.17;1.50;;;;;;;9.81;100.00;101568.63;5004238;28;20079;-75
2023/01/06 04:56:49;;;;;;;6.00;1.83;;;;;;;9.81;100.00;101569.47;5010580;28;20064;-75
2023/01/06 04:59:15;;;;;;;3.75;1.60;;;;;;;9.82;100.00;101572.94;5027636;28;20148;-75
2023/01/06 05:01:40;;;;;;;4.90;1.73;;;;;;;9.82;100.00;101560.00;5018437;28;20022;-75
2023/01/06 05:04:06;;;;;;;3.97;1.60;;;;;;;9.85;100.00;101552.19;5013375;28;20034;-75
2023/01/06 05:06:32;;;;;;;7.55;1.50;;;;;;;9.82;100.00;101566.03;5014992;28;20031;-75
2023/01/06 05:08:57;;;;;;;4.95;1.52;;;;;;;9.85;100.00;101558.22;5017045;28;20022;-75
2023/01/06 05:11:24;;;;;;;7.43;1.65;;;;;;;9.88;100.00;101555.59;5022737;28;20022;-75
2023/01/06 05:13:50;;;;;;;5.10;1.65;;;;;;;9.89;100.00;101551.28;5013754;28;20447;-75
2023/01/06 05:16:20;;;;;;;2.60;1.35;;;;;;;9.89;100.00;101551.28;5014103;28;20520;-75
2023/01/06 05:18:45;;;;;;;2.95;1.30;;;;;;;9.90;100.00;101547.81;5014982;28;20030;-74
2023/01/06 05:21:11;;;;;;;5.40;1.50;;;;;;;9.96;100.00;101547.78;5014139;28;20028;-75
2023/01/06 05:23:38;;;;;;;3.30;1.40;;;;;;;9.94;100.00;101543.47;5013460;28;20448;-75
2023/01/06 05:26:04;;;;;;;3.40;1.13;;;;;;;9.93;100.00;101545.19;5026817;28;20116;-75
2023/01/06 05:28:30;;;;;;;3.45;1.48;;;;;;;9.94;100.00;101546.91;5017120;28;20133;-75
2023/01/06 05:30:59;;;;;;;3.38;1.60;;;;;;;9.93;100.00;101542.59;5014942;28;20462;-75
2023/01/06 05:33:25;;;;;;;3.85;1.50;;;;;;;9.93;100.00;101544.34;5014613;28;20017;-75
2023/01/06 05:35:57;;;;;;;3.97;1.60;;;;;;;9.93;100.00;101541.75;5009022;28;20076;-75
2023/01/06 05:38:22;;;;;;;4.43;1.50;;;;;;;9.92;100.00;101540.88;5024933;28;20033;-75
2023/01/06 05:40:50;;;;;;;3.55;1.40;;;;;;;9.93;100.00;101547.78;5017886;28;20021;-75
2023/01/06 05:43:16;;;;;;;3.78;1.63;;;;;;;9.94;100.00;101546.06;5018606;28;20369;-75
2023/01/06 05:45:41;;;;;;;4.72;1.70;;;;;;;9.95;100.00;101548.63;5025120;28;20552;-75
2023/01/06 05:48:07;;;;;;;3.05;1.40;;;;;;;9.96;100.00;101552.09;5014263;28;20033;-75
2023/01/06 05:50:32;;;;;;;4.80;1.67;;;;;;;9.96;100.00;101552.09;5014126;28;20196;-75
2023/01/06 05:52:57;;;;;;;6.65;1.80;;;;;;;9.93;100.00;101539.16;5026057;28;20108;-75
2023/01/06 05:55:22;;;;;;;5.97;1.98;;;;;;;10.02;100.00;101555.47;5008975;28;20032;-75
2023/01/06 05:57:48;;;;;;;4.22;1.85;;;;;;;9.99;100.00;101557.22;5009856;28;20029;-75
2023/01/06 06:00:14;;;;;;;3.13;1.55;;;;;;;9.99;100.00;101562.41;5000956;28;20030;-75
2023/01/06 06:02:39;;;;;;;3.63;1.60;;;;;;;9.98;100.00;101563.28;5002794;28;20476;-75
2023/01/06 06:05:05;;;;;;;3.55;1.63;;;;;;;9.97;100.00;101572.75;5006687;28;20037;-75
2023/01/06 06:07:30;;;;;;;2.90;1.70;;;;;;;10.00;100.00;101574.47;5000163;28;20468;-74
2023/01/06 06:09:55;;;;;;;4.03;1.50;;;;;;;9.99;100.00;101565.84;5023541;28;20108;-75
2023/01/06 06:12:21;;;;;;;2.88;1.50;;;;;;;10.00;100.00;101566.72;5012290;28;20018;-75
2023/01/06 06:14:46;;;;;;;5.50;1.67;;;;;;;10.00;100.00;101569.31;5016687;28;20396;-74
2023/01/06 06:17:11;;;;;;;3.08;1.83;;;;;;;9.97;100.00;101572.75;5018226;28;20349;-75
2023/01/06 06:19:36;;;;;;;4.30;1.77;;;;;;;9.94;100.00;101561.59;5010252;28;20053;-74
2023/01/06 06:22:02;;;;;;;4.82;1.90;;;;;;;9.85;100.00;101554.75;5012411;28;20405;-75
2023/01/06 06:24:27;;;;;;;4.82;2.00;;;;;;;9.85;100.00;101555.63;5013592;28;20496;-72
2023/01/06 06:26:52;;;;;;;2.80;1.80;;;;;;;9.88;100.00;101559.94;5011002;28;20044;-72
2023/01/06 06:29:18;;;;;;;6.73;1.97;;;;;;;9.86;100.00;101548.72;5014598;28;20030;-72
2023/01/06 06:31:43;;;;;;;5.10;1.80;;;;;;;9.86;100.00;101556.47;5021447;28;20390;-72
2023/01/06 06:34:11;;;;;;;4.65;1.80;;;;;;;9.85;100.00;101534.91;5008961;28;20083;-72
2023/01/06 06:36:36;;;;;;;3.58;1.80;;;;;;;9.89;100.00;101552.13;5011934;28;20399;-73
2023/01/06 06:39:02;;;;;;;3.70;1.80;;;;;;;9.87;100.00;101532.31;5006970;28;20469;-72
2023/01/06 06:41:27;;;;;;;4.35;1.92;;;;;;;9.89;100.00;101546.94;5012683;28;20038;-73
2023/01/06 06:43:52;;;;;;;4.40;2.00;;;;;;;9.90;100.00;101548.66;5021179;28;20036;-72
2023/01/06 06:46:19;;;;;;;4.80;1.90;;;;;;;9.91;100.00;101560.75;5012138;28;20034;-71
2023/01/06 06:48:44;;;;;;;2.78;1.63;;;;;;;9.91;100.00;101549.53;5007440;28;20088;-72
2023/01/06 06:51:13;;;;;;;6.72;2.25;;;;;;;9.96;100.00;101557.28;5012767;28;20054;-71
2023/01/06 06:53:39;;;;;;;5.85;2.10;;;;;;;9.93;100.00;101550.38;5010766;28;20086;-71
2023/01/06 06:56:06;;;;;;;6.05;1.92;;;;;;;9.89;100.00;101536.59;5007923;28;20037;-71
2023/01/06 06:58:32;;;;;;;6.63;2.38;;;;;;;9.88;100.00;101560.78;5008406;28;20029;-71
2023/01/06 07:00:57;;;;;;;5.35;2.30;;;;;;;9.89;100.00;101566.81;5017119;28;20112;-71
2023/01/06 07:03:24;;;;;;;3.58;2.00;;;;;;;9.89;100.00;101557.28;5008418;28;20034;-71
2023/01/06 07:05:51;;;;;;;5.80;2.25;;;;;;;9.84;100.00;101566.84;5008828;28;20026;-71
2023/01/06 07:08:17;;;;;;;5.07;2.30;;;;;;;9.87;100.00;101564.25;5020892;28;20037;-71
2023/01/06 07:10:42;;;;;;;5.03;2.17;;;;;;;9.88;100.00;101568.56;5013576;28;20022;-71
2023/01/06 07:13:08;;;;;;;5.22;2.47;;;;;;;9.84;100.00;101572.03;5016268;28;20039;-71
2023/01/06 07:15:33;;;;;;;4.05;2.22;;;;;;;9.82;100.00;101567.75;5010052;28;20548;-71
2023/01/06 07:18:01;;;;;;;6.03;2.60;;;;;;;9.81;100.00;101584.16;5006903;28;20057;-72
2023/01/06 07:20:26;;;;;;;5.18;2.42;;;;;;;9.78;100.00;101584.16;5001024;28;20607;-71
2023/01/06 07:22:52;;;;;;;4.45;2.22;;;;;;;9.81;100.00;101579.84;4999088;28;20024;-71
2023/01/06 07:25:17;;;;;;;4.45;2.35;;;;;;;9.77;100.00;101579.84;5003340;28;20034;-71
2023/01/06 07:27:42;;;;;;;4.07;2.45;;;;;;;9.72;100.00;101589.41;5007989;28;20463;-71
2023/01/06 07:30:09;;;;;;;4.38;2.20;;;;;;;9.62;100.00;101574.84;5011759;28;20030;-71
2023/01/06 07:32:34;;;;;;;5.60;2.53;;;;;;;9.53;100.00;101580.94;5027858;28;20037;-71
2023/01/06 07:35:00;;;;;;;7.22;2.63;;;;;;;9.48;100.00;101586.13;5007813;28;20025;-71
2023/01/06 07:37:25;;;;;;;5.38;2.40;;;;;;;9.44;100.00;101596.50;5006056;28;20069;-71
2023/01/06 07:39:50;;;;;;;5.30;2.97;;;;;;;9.43;100.00;101593.06;5016698;28;20026;-72
2023/01/06 07:42:16;;;;;;;5.38;2.85;;;;;;;9.42;100.00;101596.50;5009785;28;20369;-71
2023/01/06 07:44:41;;;;;;;5.93;2.80;;;;;;;9.41;100.00;101594.81;5007828;28;20065;-71
2023/01/06 07:47:06;;;;;;;4.18;2.90;;;;;;;9.42;100.00;101587.91;5019549;28;20025;-71
2023/01/06 07:49:32;;;;;;;4.93;2.80;;;;;;;9.41;100.00;101600.00;5018602;28;20033;-71
2023/01/06 07:51:57;;;;;;;5.82;3.30;;;;;;;9.41;100.00;101594.81;5012882;28;20440;-71
2023/01/06 07:54:22;;;;;;;6.90;3.20;;;;;;;9.43;100.00;101595.66;5012420;28;20120;-71
2023/01/06 07:56:48;;;;;;;5.60;3.17;;;;;;;9.47;100.00;101596.50;5009394;28;20030;-71
2023/01/06 07:59:13;;;;;;;6.00;3.13;;;;;;;9.49;100.00;101613.72;5004508;28;20140;-71
2023/01/06 08:01:38;;;;;;;5.07;2.95;;;;;;;9.50;100.00;101604.22;5011809;28;20026;-71
2023/01/06 08:04:04;;;;;;;5.32;3.10;;;;;;;9.52;100.00;101616.31;4999568;28;20026;-71
2023/01/06 08:06:29;;;;;;;6.25;3.28;;;;;;;9.45;100.00;101613.75;5016248;28;20038;-71
2023/01/06 08:08:54;;;;;;;6.57;3.15;;;;;;;9.43;100.00;101628.44;5003259;28;20026;-71
2023/01/06 08:11:20;;;;;;;8.00;3.75;;;;;;;9.38;100.00;101625.88;5020462;28;20480;-71
2023/01/06 08:13:45;;;;;;;5.97;3.20;;;;;;;9.36;100.00;101625.03;5019165;28;20092;-71
2023/01/06 08:16:11;;;;;;;6.28;3.20;;;;;;;9.34;100.00;101625.91;5020653;28;20030;-71
2023/01/06 08:18:37;;;;;;;9.15;3.75;;;;;;;9.32;100.00;101628.50;5028642;28;20034;-71
2023/01/06 08:21:06;;;;;;;7.60;3.72;;;;;;;9.32;100.00;101635.41;5016091;28;20029;-71
2023/01/06 08:23:32;;;;;;;5.38;3.47;;;;;;;9.32;100.00;101631.09;5016806;28;20026;-71
2023/01/06 08:26:09;;;;;;;6.55;3.60;;;;;;;9.32;100.00;101635.41;5016218;28;20018;-71
2023/01/06 08:28:35;;;;;;;7.10;3.55;;;;;;;9.34;100.00;101636.28;5013527;28;20036;-71
2023/01/06 08:31:01;;;;;;;8.00;3.75;;;;;;;9.34;100.00;101655.25;5015214;28;20010;-72
2023/01/06 08:33:27;;;;;;;6.75;3.58;;;;;;;9.37;100.00;101657.78;5018536;28;20060;-71
2023/01/06 08:36:01;;;;;;;6.63;4.00;;;;;;;9.39;100.00;101661.25;5010940;28;20120;-71
2023/01/06 08:38:27;;;;;;;7.88;4.30;;;;;;;9.44;100.00;101680.19;5016372;28;20053;-71
2023/01/06 08:40:54;;;;;;;6.85;4.30;;;;;;;9.48;100.00;101673.28;5015882;28;20036;-71
2023/01/06 08:43:20;;;;;;;8.30;4.45;;;;;;;9.49;100.00;101672.38;5016020;28;20026;-71
2023/01/06 08:45:45;;;;;;;8.50;4.78;;;;;;;9.52;100.00;101681.00;5016223;28;20029;-71
2023/01/06 08:48:11;;;;;;;7.95;5.20;;;;;;;9.58;100.00;101681.81;5013750;28;20033;-71
2023/01/06 08:50:40;;;;;;;7.57;4.95;;;;;;;9.64;100.00;101684.38;5015811;28;20054;-71
2023/01/06 08:53:06;;;;;;;8.88;5.57;;;;;;;9.68;100.00;101683.50;5015090;28;20037;-71
2023/01/06 08:55:32;;;;;;;8.85;4.97;;;;;;;9.73;100.00;101686.91;5016064;28;20029;-71
2023/01/06 08:57:57;;;;;;;10.35;5.57;;;;;;;9.74;100.00;101689.50;5015575;28;20058;-71
2023/01/06 09:00:23;;;;;;;9.70;5.22;;;;;;;9.74;100.00;101696.41;5021256;28;20033;-72
2023/01/06 09:02:48;;;;;;;9.00;5.43;;;;;;;9.74;100.00;101701.59;5021838;28;20026;-72
2023/01/06 09:05:14;;;;;;;10.98;6.38;;;;;;;9.79;100.00;101692.03;5015883;28;20033;-71
2023/01/06 09:07:39;;;;;;;12.30;5.78;;;;;;;9.84;100.00;101693.72;5012745;28;20053;-72
2023/01/06 09:10:05;;;;;;;13.38;6.53;;;;;;;9.85;100.00;101697.19;5013255;28;20025;-72
2023/01/06 09:12:30;;;;;;;13.80;7.38;;;;;;;9.86;100.00;101691.13;5015264;28;20026;-72
2023/01/06 09:14:56;;;;;;;11.85;6.78;;;;;;;9.86;100.00;101696.31;5015478;28;20026;-72
2023/01/06 09:17:21;;;;;;;12.80;7.32;;;;;;;9.84;100.00;101698.91;5022370;28;20321;-72
2023/01/06 09:19:46;;;;;;;11.13;6.63;;;;;;;9.89;100.00;101701.47;5014963;28;20444;-72
2023/01/06 09:22:11;;;;;;;12.32;7.15;;;;;;;9.90;100.00;101703.19;5013725;28;20065;-72
2023/01/06 09:24:37;;;;;;;11.63;6.85;;;;;;;9.95;100.00;101709.22;5010878;28;20113;-71
2023/01/06 09:27:02;;;;;;;14.88;7.13;;;;;;;10.05;100.00;101713.44;5014470;28;20041;-72
2023/01/06 09:29:27;;;;;;;12.73;7.35;;;;;;;10.10;100.00;101726.38;5013223;28;20492;-71
2023/01/06 09:31:53;;;;;;;14.02;6.97;;;;;;;10.13;100.00;101731.50;5015426;28;20014;-71
2023/01/06 09:34:18;;;;;;;12.20;7.32;;;;;;;10.19;100.00;101736.66;5008613;28;20477;-71
2023/01/06 09:36:44;;;;;;;17.60;8.82;;;;;;;10.29;100.00;101744.38;5008238;28;20022;-71
2023/01/06 09:39:09;;;;;;;13.65;7.20;;;;;;;10.43;100.00;101751.19;5005124;28;20037;-71
2023/01/06 09:41:55;;;;;;;15.00;7.20;;;;;;;10.50;100.00;101763.22;5018410;28;20497;-71
2023/01/06 09:44:55;;;;;;;13.40;7.57;;;;;;;10.65;100.00;101757.88;5020382;28;20029;-71
2023/01/06 09:47:26;;;;;;;14.07;6.72;;;;;;;10.67;100.00;101759.59;5015730;28;20053;-71
2023/01/06 09:50:01;;;;;;;13.68;7.40;;;;;;;10.63;100.00;101765.69;5021991;28;20053;-71
2023/01/06 09:52:41;;;;;;;12.10;7.32;;;;;;;10.61;100.00;101767.41;5004963;28;20101;-71
2023/01/06 09:55:23;;;;;;;13.02;7.35;;;;;;;10.54;100.00;101781.31;5015030;28;20032;-71
2023/01/06 09:58:11;;;;;;;12.85;7.68;;;;;;;10.46;100.00;101767.56;5019925;28;20036;-71
2023/01/06 10:03:15;;;;;;;16.13;8.13;;;;;;;10.29;100.00;101759.94;5837406;22;20065;-89
2023/01/06 10:05:47;;;;;;;17.08;9.07;;;;;;;10.30;100.00;101766.81;5008786;28;20088;-89
2023/01/06 10:08:36;;;;;;;12.00;7.68;;;;;;;10.30;100.00;101765.97;5016406;28;20041;-88
2023/01/06 10:11:41;;;;;;;13.85;7.93;;;;;;;10.37;100.00;101772.81;5012121;28;20057;-88
2023/01/06 10:14:22;;;;;;;13.45;7.65;;;;;;;10.42;100.00;101775.38;5011178;28;20045;-88
2023/01/06 10:17:21;;;;;;;13.35;7.20;;;;;;;10.45;100.00;101772.75;5021500;28;20030;-89
2023/01/06 10:20:14;;;;;;;13.15;7.03;;;;;;;10.47;100.00;101776.19;5004808;28;20048;-88
2023/01/06 10:23:14;;;;;;;11.93;7.10;;;;;;;10.56;100.00;101776.97;5008742;28;20038;-89
2023/01/06 10:25:45;;;;;;;12.70;7.07;;;;;;;10.71;100.00;101768.22;5011672;28;20075;-89
2023/01/06 10:28:34;;;;;;;11.73;6.82;;;;;;;10.79;100.00;101774.16;5004592;28;20038;-88
2023/01/06 10:31:04;;;;;;;12.05;6.80;;;;;;;10.89;100.00;101783.59;5010257;28;20113;-89
2023/01/06 10:33:34;;;;;;;13.35;6.15;;;;;;;10.92;100.00;101777.47;5012510;28;20048;-90
2023/01/06 10:36:00;;;;;;;9.95;5.90;;;;;;;10.86;100.00;101768.03;5007645;28;20037;-89
2023/01/06 10:38:45;;;;;;;13.55;5.80;;;;;;;10.88;100.00;101765.44;5012449;28;20037;-89
2023/01/06 10:41:26;;;;;;;14.15;6.47;;;;;;;10.90;100.00;101774.06;4994986;28;20022;-89
2023/01/06 10:43:51;;;;;;;12.48;6.47;;;;;;;10.85;100.00;101768.91;5023317;28;20064;-90
2023/01/06 10:46:17;;;;;;;14.25;6.60;;;;;;;10.83;100.00;101768.09;5001638;28;20067;-89
2023/01/06 10:48:43;;;;;;;11.75;5.93;;;;;;;11.01;100.00;101770.47;5018024;28;20057;-89
2023/01/06 10:51:30;;;;;;;10.75;5.90;;;;;;;11.32;100.00;101771.00;5012838;28;20060;-89
2023/01/06 10:53:57;;;;;;;10.00;4.95;;;;;;;11.52;100.00;101764.72;5011393;28;20450;-89
2023/01/06 10:56:23;;;;;;;11.27;4.65;;;;;;;11.56;100.00;101771.56;4992721;28;20463;-91
2023/01/06 10:58:55;;;;;;;11.80;4.68;;;;;;;11.49;98.40;101771.66;5010546;28;20057;-91
2023/01/06 11:01:25;;;;;;;7.75;3.97;;;;;;;11.37;100.00;101770.94;5007925;28;20541;-90
2023/01/06 11:04:11;;;;;;;9.52;3.80;;;;;;;11.25;100.00;101773.69;4993501;28;20049;-89
2023/01/06 11:06:50;;;;;;;8.30;3.30;;;;;;;11.04;99.04;101780.84;4993533;28;20030;-90
2023/01/06 11:09:24;;;;;;;7.47;3.08;;;;;;;10.92;98.13;101772.28;5011719;28;20401;-86
2023/01/06 11:11:51;;;;;;;8.90;3.00;;;;;;;10.79;99.21;101773.28;5008000;28;20462;-86
2023/01/06 11:14:20;;;;;;;12.38;4.00;;;;;;;10.68;99.19;101765.63;5009921;28;20584;-86
2023/01/06 11:16:56;;;;;;;10.60;3.38;;;;;;;10.68;100.00;101778.59;5012376;28;20029;-86
2023/01/06 11:19:44;;;;;;;11.77;3.50;;;;;;;10.64;100.00;101780.34;5002597;28;20040;-86
2023/01/06 11:22:28;;;;;;;11.20;3.90;;;;;;;10.65;100.00;101781.19;5010088;28;20108;-85
2023/01/06 11:24:53;;;;;;;10.77;3.92;;;;;;;10.68;100.00;101781.19;4992891;28;20398;-85
2023/01/06 11:27:18;;;;;;;11.32;4.00;;;;;;;10.77;100.00;101775.94;4994293;28;20022;-85
2023/01/06 11:29:44;;;;;;;12.63;4.10;;;;;;;10.84;100.00;101780.19;4993625;28;20049;-86
2023/01/06 11:32:22;;;;;;;14.77;4.50;;;;;;;10.98;100.00;101774.84;4994159;28;20074;-87
2023/01/06 11:35:01;;;;;;;12.27;4.35;;;;;;;11.15;100.00;101772.06;4997799;28;20188;-86
2023/01/06 11:37:30;;;;;;;12.18;4.60;;;;;;;11.36;100.00;101775.28;4994752;28;20057;-87
2023/01/06 11:39:55;;;;;;;12.80;4.72;;;;;;;11.53;100.00;101764.69;5024825;28;20101;-87